sensor_id;sensor_type;location;lat;lon;timestamp;pressure;altitude;pressure_sealevel;temperature;humidity
5877;BME280;2964;42.144;24.730;2022-09-17T00:01:28;147063.66;;;22.16;77.32
5877;BME280;2964;42.144;24.730;2022-09-17T00:03:57;147009.16;;;21.94;77.03
5877;BME280;2964;42.144;24.730;2022-09-17T00:06:29;147020.59;;;21.99;77.21
5877;BME280;2964;42.144;24.730;2022-09-17T00:08:56;147010.47;;;21.95;75.90
5877;BME280;2964;42.144;24.730;2022-09-17T00:11:25;146969.94;;;21.78;74.88
5877;BME280;2964;42.144;24.730;2022-09-17T00:13:54;147072.50;;;22.20;75.94
5877;BME280;2964;42.144;24.730;2022-09-17T00:16:26;146977.50;;;21.82;77.48
5877;BME280;2964;42.144;24.730;2022-09-17T00:18:54;146849.53;;;21.30;77.45
5877;BME280;2964;42.144;24.730;2022-09-17T00:21:22;146860.97;;;21.34;77.61
5877;BME280;2964;42.144;24.730;2022-09-17T00:23:52;146995.25;;;21.89;77.51
5877;BME280;2964;42.144;24.730;2022-09-17T00:26:20;147026.91;;;22.02;77.65
5877;BME280;2964;42.144;24.730;2022-09-17T00:28:48;146881.19;;;21.43;77.42
5877;BME280;2964;42.144;24.730;2022-09-17T00:31:17;146954.69;;;21.72;79.06
5877;BME280;2964;42.144;24.730;2022-09-17T00:33:43;146743.22;;;20.87;79.42
5877;BME280;2964;42.144;24.730;2022-09-17T00:36:10;146925.59;;;21.61;78.75
5877;BME280;2964;42.144;24.730;2022-09-17T00:38:37;146952.19;;;21.71;78.71
5877;BME280;2964;42.144;24.730;2022-09-17T00:41:04;146709.00;;;20.73;79.29
5877;BME280;2964;42.144;24.730;2022-09-17T00:43:38;146762.19;;;20.94;80.84
5877;BME280;2964;42.144;24.730;2022-09-17T00:46:17;146921.78;;;21.59;80.61
5877;BME280;2964;42.144;24.730;2022-09-17T00:48:49;146729.28;;;20.81;80.76
5877;BME280;2964;42.144;24.730;2022-09-17T00:51:20;146847.03;;;21.29;82.33
5877;BME280;2964;42.144;24.730;2022-09-17T00:53:48;146873.63;;;21.39;81.22
5877;BME280;2964;42.144;24.730;2022-09-17T00:56:19;146776.13;;;21.00;81.47
5877;BME280;2964;42.144;24.730;2022-09-17T00:58:48;146809.03;;;21.13;83.02
5877;BME280;2964;42.144;24.730;2022-09-17T01:01:16;146755.88;;;20.92;84.12
5877;BME280;2964;42.144;24.730;2022-09-17T01:03:42;146610.28;;;20.33;83.49
5877;BME280;2964;42.144;24.730;2022-09-17T01:06:16;146816.63;;;21.16;84.17
5877;BME280;2964;42.144;24.730;2022-09-17T01:08:57;146754.59;;;20.91;84.55
5877;BME280;2964;42.144;24.730;2022-09-17T01:11:36;146764.75;;;20.95;84.64
5877;BME280;2964;42.144;24.730;2022-09-17T01:14:16;146759.66;;;20.93;85.30
5877;BME280;2964;42.144;24.730;2022-09-17T01:16:50;146731.81;;;20.82;84.82
5877;BME280;2964;42.144;24.730;2022-09-17T01:19:56;146578.66;;;20.20;85.03
5877;BME280;2964;42.144;24.730;2022-09-17T01:22:32;146664.72;;;20.55;84.86
5877;BME280;2964;42.144;24.730;2022-09-17T01:25:19;146658.34;;;20.52;85.14
5877;BME280;2964;42.144;24.730;2022-09-17T01:28:13;146721.69;;;20.78;85.39
5877;BME280;2964;42.144;24.730;2022-09-17T01:31:00;146702.72;;;20.70;85.97
5877;BME280;2964;42.144;24.730;2022-09-17T01:33:37;146584.97;;;20.22;85.59
5877;BME280;2964;42.144;24.730;2022-09-17T01:36:27;146691.28;;;20.66;85.72
5877;BME280;2964;42.144;24.730;2022-09-17T01:39:04;146721.69;;;20.78;85.16
5877;BME280;2964;42.144;24.730;2022-09-17T01:41:37;146709.00;;;20.73;85.35
5877;BME280;2964;42.144;24.730;2022-09-17T01:44:10;146539.41;;;20.04;85.96
5877;BME280;2964;42.144;24.730;2022-09-17T01:46:42;146486.28;;;19.82;86.72
5877;BME280;2964;42.144;24.730;2022-09-17T01:49:12;146509.03;;;19.92;85.97
5877;BME280;2964;42.144;24.730;2022-09-17T01:51:44;146568.50;;;20.16;84.29
5877;BME280;2964;42.144;24.730;2022-09-17T01:54:14;146838.19;;;21.25;83.16
5877;BME280;2964;42.144;24.730;2022-09-17T01:56:46;146735.59;;;20.83;82.51
5877;BME280;2964;42.144;24.730;2022-09-17T01:59:17;146844.47;;;21.28;82.94
5877;BME280;2964;42.144;24.730;2022-09-17T02:01:52;146779.94;;;21.01;81.92
5877;BME280;2964;42.144;24.730;2022-09-17T02:04:23;146815.38;;;21.16;82.86
5877;BME280;2964;42.144;24.730;2022-09-17T02:06:57;146372.41;;;19.36;84.84
5877;BME280;2964;42.144;24.730;2022-09-17T02:09:29;146607.75;;;20.32;88.29
5877;BME280;2964;42.144;24.730;2022-09-17T02:12:01;146654.53;;;20.51;86.24
5877;BME280;2964;42.144;24.730;2022-09-17T02:14:34;146529.31;;;20.00;88.24
5877;BME280;2964;42.144;24.730;2022-09-17T02:17:07;146550.81;;;20.09;88.87
5877;BME280;2964;42.144;24.730;2022-09-17T02:19:39;146349.66;;;19.27;89.56
5877;BME280;2964;42.144;24.730;2022-09-17T02:22:13;146483.78;;;19.81;90.06
5877;BME280;2964;42.144;24.730;2022-09-17T02:24:45;146574.84;;;20.18;89.18
5877;BME280;2964;42.144;24.730;2022-09-17T02:27:20;146496.44;;;19.86;89.99
5877;BME280;2964;42.144;24.730;2022-09-17T02:29:50;146522.97;;;19.97;91.16
5877;BME280;2964;42.144;24.730;2022-09-17T02:32:18;146263.69;;;18.92;91.56
5877;BME280;2964;42.144;24.730;2022-09-17T02:34:45;146562.19;;;20.13;90.48
5877;BME280;2964;42.144;24.730;2022-09-17T02:37:12;146519.19;;;19.96;91.07
5877;BME280;2964;42.144;24.730;2022-09-17T02:39:40;146257.38;;;18.89;90.47
5877;BME280;2964;42.144;24.730;2022-09-17T02:42:14;146449.56;;;19.67;90.52
5877;BME280;2964;42.144;24.730;2022-09-17T02:44:55;146278.88;;;18.98;89.64
5877;BME280;2964;42.144;24.730;2022-09-17T02:47:43;146535.63;;;20.02;91.05
5877;BME280;2964;42.144;24.730;2022-09-17T02:50:21;146568.50;;;20.16;89.98
5877;BME280;2964;42.144;24.730;2022-09-17T02:52:59;146428.09;;;19.59;89.18
5877;BME280;2964;42.144;24.730;2022-09-17T02:55:33;146548.28;;;20.08;90.12
5877;BME280;2964;42.144;24.730;2022-09-17T02:58:10;146516.66;;;19.95;91.21
5877;BME280;2964;42.144;24.730;2022-09-17T03:00:39;146345.84;;;19.25;90.51
5877;BME280;2964;42.144;24.730;2022-09-17T03:03:11;146380.00;;;19.39;90.75
5877;BME280;2964;42.144;24.730;2022-09-17T03:05:41;146501.47;;;19.89;91.65
5877;BME280;2964;42.144;24.730;2022-09-17T03:08:12;146582.47;;;20.21;90.30
5877;BME280;2964;42.144;24.730;2022-09-17T03:10:39;146352.19;;;19.28;89.25
5877;BME280;2964;42.144;24.730;2022-09-17T03:13:06;146369.91;;;19.35;89.74
5877;BME280;2964;42.144;24.730;2022-09-17T03:15:33;146524.25;;;19.98;91.10
5877;BME280;2964;42.144;24.730;2022-09-17T03:17:59;146455.91;;;19.70;91.26
5877;BME280;2964;42.144;24.730;2022-09-17T03:20:27;146356.00;;;19.29;92.07
5877;BME280;2964;42.144;24.730;2022-09-17T03:22:54;146577.34;;;20.19;90.41
5877;BME280;2964;42.144;24.730;2022-09-17T03:25:21;146359.78;;;19.31;91.00
5877;BME280;2964;42.144;24.730;2022-09-17T03:27:48;146424.28;;;19.57;91.62
5877;BME280;2964;42.144;24.730;2022-09-17T03:30:15;146373.69;;;19.37;90.93
5877;BME280;2964;42.144;24.730;2022-09-17T03:32:41;146522.97;;;19.97;90.97
5877;BME280;2964;42.144;24.730;2022-09-17T03:35:08;146497.69;;;19.87;91.72
5877;BME280;2964;42.144;24.730;2022-09-17T03:37:36;146616.59;;;20.35;89.45
5877;BME280;2964;42.144;24.730;2022-09-17T03:40:04;146578.66;;;20.20;90.50
5877;BME280;2964;42.144;24.730;2022-09-17T03:42:31;146563.44;;;20.14;90.40
5877;BME280;2964;42.144;24.730;2022-09-17T03:44:57;146386.31;;;19.42;90.98
5877;BME280;2964;42.144;24.730;2022-09-17T03:47:24;146515.41;;;19.94;91.49
5877;BME280;2964;42.144;24.730;2022-09-17T03:49:51;146571.06;;;20.17;90.54
5877;BME280;2964;42.144;24.730;2022-09-17T03:52:17;146454.59;;;19.70;89.29
5877;BME280;2964;42.144;24.730;2022-09-17T03:54:46;146605.25;;;20.31;88.95
5877;BME280;2964;42.144;24.730;2022-09-17T03:57:13;146559.69;;;20.12;89.16
5877;BME280;2964;42.144;24.730;2022-09-17T03:59:40;146635.56;;;20.43;89.14
5877;BME280;2964;42.144;24.730;2022-09-17T04:02:06;146558.38;;;20.12;89.38
5877;BME280;2964;42.144;24.730;2022-09-17T04:04:33;146547.03;;;20.07;88.42
5877;BME280;2964;42.144;24.730;2022-09-17T04:07:00;146428.09;;;19.59;91.08
5877;BME280;2964;42.144;24.730;2022-09-17T04:09:27;146090.50;;;18.22;93.18
5877;BME280;2964;42.144;24.730;2022-09-17T04:11:55;146147.38;;;18.45;91.36
5877;BME280;2964;42.144;24.730;2022-09-17T04:14:22;146422.97;;;19.57;91.36
5877;BME280;2964;42.144;24.730;2022-09-17T04:16:48;146414.19;;;19.53;91.66
5877;BME280;2964;42.144;24.730;2022-09-17T04:19:15;146318.03;;;19.14;93.59
5877;BME280;2964;42.144;24.730;2022-09-17T04:21:42;145909.81;;;17.48;94.72
5877;BME280;2964;42.144;24.730;2022-09-17T04:24:09;146142.34;;;18.43;94.76
5877;BME280;2964;42.144;24.730;2022-09-17T04:26:35;146286.44;;;19.01;94.83
5877;BME280;2964;42.144;24.730;2022-09-17T04:29:04;146292.78;;;19.04;95.17
5877;BME280;2964;42.144;24.730;2022-09-17T04:31:31;146224.47;;;18.76;95.04
5877;BME280;2964;42.144;24.730;2022-09-17T04:33:57;146321.84;;;19.16;95.20
5877;BME280;2964;42.144;24.730;2022-09-17T04:36:24;146428.09;;;19.59;93.37
5877;BME280;2964;42.144;24.730;2022-09-17T04:38:51;146299.09;;;19.06;92.70
5877;BME280;2964;42.144;24.730;2022-09-17T04:41:18;146374.97;;;19.37;93.47
5877;BME280;2964;42.144;24.730;2022-09-17T04:43:44;146253.56;;;18.88;92.98
5877;BME280;2964;42.144;24.730;2022-09-17T04:46:13;146488.81;;;19.83;91.88
5877;BME280;2964;42.144;24.730;2022-09-17T04:48:41;146504.00;;;19.90;91.62
5877;BME280;2964;42.144;24.730;2022-09-17T04:51:08;146481.22;;;19.80;92.27
5877;BME280;2964;42.144;24.730;2022-09-17T04:53:34;146419.22;;;19.55;91.12
5877;BME280;2964;42.144;24.730;2022-09-17T04:56:02;146592.56;;;20.25;89.46
5877;BME280;2964;42.144;24.730;2022-09-17T04:58:29;146579.91;;;20.20;89.65
5877;BME280;2964;42.144;24.730;2022-09-17T05:00:57;146645.69;;;20.47;88.40
5877;BME280;2964;42.144;24.730;2022-09-17T05:03:25;146507.78;;;19.91;87.27
5877;BME280;2964;42.144;24.730;2022-09-17T05:05:52;146528.06;;;19.99;86.17
5877;BME280;2964;42.144;24.730;2022-09-17T05:08:21;146548.28;;;20.08;87.70
5877;BME280;2964;42.144;24.730;2022-09-17T05:10:49;146648.22;;;20.48;88.09
5877;BME280;2964;42.144;24.730;2022-09-17T05:13:16;146757.13;;;20.92;84.39
5877;BME280;2964;42.144;24.730;2022-09-17T05:15:43;146822.94;;;21.19;82.27
5877;BME280;2964;42.144;24.730;2022-09-17T05:18:10;146817.88;;;21.17;82.26
5877;BME280;2964;42.144;24.730;2022-09-17T05:20:39;146930.66;;;21.63;80.57
5877;BME280;2964;42.144;24.730;2022-09-17T05:23:05;146583.72;;;20.22;80.20
5877;BME280;2964;42.144;24.730;2022-09-17T05:25:32;147073.81;;;22.21;77.84
5877;BME280;2964;42.144;24.730;2022-09-17T05:27:59;147138.47;;;22.47;75.85
5877;BME280;2964;42.144;24.730;2022-09-17T05:30:26;146940.78;;;21.67;74.58
5877;BME280;2964;42.144;24.730;2022-09-17T05:33:00;147328.63;;;23.24;71.97
5877;BME280;2964;42.144;24.730;2022-09-17T05:35:27;147294.41;;;23.10;71.34
5877;BME280;2964;42.144;24.730;2022-09-17T05:38:00;147160.00;;;22.55;73.34
5877;BME280;2964;42.144;24.730;2022-09-17T05:40:27;147078.88;;;22.23;72.20
5877;BME280;2964;42.144;24.730;2022-09-17T05:42:57;147134.66;;;22.45;72.16
5877;BME280;2964;42.144;24.730;2022-09-17T05:45:24;147035.78;;;22.05;72.79
5877;BME280;2964;42.144;24.730;2022-09-17T05:47:53;146942.06;;;21.67;73.17
5877;BME280;2964;42.144;24.730;2022-09-17T05:50:20;147261.41;;;22.97;72.74
5877;BME280;2964;42.144;24.730;2022-09-17T05:52:47;147284.28;;;23.06;72.66
5877;BME280;2964;42.144;24.730;2022-09-17T05:55:16;147083.94;;;22.25;74.61
5877;BME280;2964;42.144;24.730;2022-09-17T05:57:42;146900.25;;;21.50;76.40
5877;BME280;2964;42.144;24.730;2022-09-17T06:00:10;147100.44;;;22.31;78.00
5877;BME280;2964;42.144;24.730;2022-09-17T06:02:38;147596.31;;;24.32;67.40
5877;BME280;2964;42.144;24.730;2022-09-17T06:05:04;148090.34;;;26.32;61.32
5877;BME280;2964;42.144;24.730;2022-09-17T06:07:34;147951.84;;;25.76;61.28
5877;BME280;2964;42.144;24.730;2022-09-17T06:10:01;148173.00;;;26.65;58.02
5877;BME280;2964;42.144;24.730;2022-09-17T06:12:29;148272.09;;;27.05;56.73
5877;BME280;2964;42.144;24.730;2022-09-17T06:14:56;148281.00;;;27.09;56.77
5877;BME280;2964;42.144;24.730;2022-09-17T06:17:22;147911.19;;;25.59;61.75
5877;BME280;2964;42.144;24.730;2022-09-17T06:19:49;148020.47;;;26.04;61.74
5877;BME280;2964;42.144;24.730;2022-09-17T06:22:17;148254.31;;;26.98;57.66
5877;BME280;2964;42.144;24.730;2022-09-17T06:24:45;148058.56;;;26.19;57.90
5877;BME280;2964;42.144;24.730;2022-09-17T06:27:12;147838.81;;;25.30;62.59
5877;BME280;2964;42.144;24.730;2022-09-17T06:29:40;147751.19;;;24.95;64.25
5877;BME280;2964;42.144;24.730;2022-09-17T06:32:07;147669.94;;;24.62;62.61
5877;BME280;2964;42.144;24.730;2022-09-17T06:34:36;147695.34;;;24.72;65.02
5877;BME280;2964;42.144;24.730;2022-09-17T06:37:02;147310.91;;;23.17;68.04
5877;BME280;2964;42.144;24.730;2022-09-17T06:39:29;147450.38;;;23.73;69.77
5877;BME280;2964;42.144;24.730;2022-09-17T06:41:56;147551.91;;;24.14;68.41
5877;BME280;2964;42.144;24.730;2022-09-17T06:44:23;147446.56;;;23.71;66.32
5877;BME280;2964;42.144;24.730;2022-09-17T06:46:51;147322.31;;;23.21;67.92
5877;BME280;2964;42.144;24.730;2022-09-17T06:49:23;147512.59;;;23.98;68.39
5877;BME280;2964;42.144;24.730;2022-09-17T06:51:50;147570.97;;;24.22;67.36
5877;BME280;2964;42.144;24.730;2022-09-17T06:54:17;147657.28;;;24.57;66.36
5877;BME280;2964;42.144;24.730;2022-09-17T06:56:45;147489.75;;;23.89;67.52
5877;BME280;2964;42.144;24.730;2022-09-17T06:59:12;147749.94;;;24.94;65.19
5877;BME280;2964;42.144;24.730;2022-09-17T07:01:39;147741.03;;;24.91;65.33
5877;BME280;2964;42.144;24.730;2022-09-17T07:04:07;147846.44;;;25.33;64.23
5877;BME280;2964;42.144;24.730;2022-09-17T07:06:33;147815.91;;;25.21;63.84
5877;BME280;2964;42.144;24.730;2022-09-17T07:09:00;147829.94;;;25.27;63.36
5877;BME280;2964;42.144;24.730;2022-09-17T07:11:28;147653.47;;;24.55;65.59
5877;BME280;2964;42.144;24.730;2022-09-17T07:13:55;147560.78;;;24.18;66.99
5877;BME280;2964;42.144;24.730;2022-09-17T07:16:22;147610.25;;;24.38;65.34
5877;BME280;2964;42.144;24.730;2022-09-17T07:18:50;147504.97;;;23.95;67.71
5877;BME280;2964;42.144;24.730;2022-09-17T07:21:19;147573.47;;;24.23;66.95
5877;BME280;2964;42.144;24.730;2022-09-17T07:23:45;147672.50;;;24.63;66.17
5877;BME280;2964;42.144;24.730;2022-09-17T07:26:14;147647.09;;;24.53;66.35
5877;BME280;2964;42.144;24.730;2022-09-17T07:28:41;147768.97;;;25.02;64.85
5877;BME280;2964;42.144;24.730;2022-09-17T07:31:09;147850.28;;;25.35;62.62
5877;BME280;2964;42.144;24.730;2022-09-17T07:33:36;147504.97;;;23.95;66.76
5877;BME280;2964;42.144;24.730;2022-09-17T07:36:05;147633.09;;;24.47;66.19
5877;BME280;2964;42.144;24.730;2022-09-17T07:38:33;147841.38;;;25.31;63.46
5877;BME280;2964;42.144;24.730;2022-09-17T07:41:01;147997.63;;;25.94;60.89
5877;BME280;2964;42.144;24.730;2022-09-17T07:43:30;148091.63;;;26.32;59.33
5877;BME280;2964;42.144;24.730;2022-09-17T07:45:58;148090.34;;;26.32;60.25
5877;BME280;2964;42.144;24.730;2022-09-17T07:48:26;148227.66;;;26.87;57.43
5877;BME280;2964;42.144;24.730;2022-09-17T07:50:53;148518.88;;;28.05;53.91
5877;BME280;2964;42.144;24.730;2022-09-17T07:53:20;148576.13;;;28.28;52.77
5877;BME280;2964;42.144;24.730;2022-09-17T07:55:52;148522.69;;;28.06;52.06
5877;BME280;2964;42.144;24.730;2022-09-17T07:58:20;148663.94;;;28.63;49.97
5877;BME280;2964;42.144;24.730;2022-09-17T08:00:47;148628.25;;;28.49;49.72
5877;BME280;2964;42.144;24.730;2022-09-17T08:03:14;148674.13;;;28.67;50.29
5877;BME280;2964;42.144;24.730;2022-09-17T08:05:41;148727.56;;;28.89;50.39
5877;BME280;2964;42.144;24.730;2022-09-17T08:08:08;148782.28;;;29.11;49.74
5877;BME280;2964;42.144;24.730;2022-09-17T08:10:35;148646.13;;;28.56;51.04
5877;BME280;2964;42.144;24.730;2022-09-17T08:13:03;148647.38;;;28.57;49.81
5877;BME280;2964;42.144;24.730;2022-09-17T08:15:30;148437.41;;;27.72;51.58
5877;BME280;2964;42.144;24.730;2022-09-17T08:17:56;148539.25;;;28.13;51.85
5877;BME280;2964;42.144;24.730;2022-09-17T08:20:23;148732.66;;;28.91;49.44
5877;BME280;2964;42.144;24.730;2022-09-17T08:22:57;148932.56;;;29.72;47.34
5877;BME280;2964;42.144;24.730;2022-09-17T08:25:24;148885.41;;;29.53;47.11
5877;BME280;2964;42.144;24.730;2022-09-17T08:27:52;149015.38;;;30.05;46.54
5877;BME280;2964;42.144;24.730;2022-09-17T08:30:20;149102.00;;;30.40;45.62
5877;BME280;2964;42.144;24.730;2022-09-17T08:32:47;149010.28;;;30.03;44.91
5877;BME280;2964;42.144;24.730;2022-09-17T08:35:14;148675.38;;;28.68;49.24
5877;BME280;2964;42.144;24.730;2022-09-17T08:37:42;149038.28;;;30.14;46.53
5877;BME280;2964;42.144;24.730;2022-09-17T08:40:11;149169.50;;;30.67;44.37
5877;BME280;2964;42.144;24.730;2022-09-17T08:42:48;149209.00;;;30.83;45.16
5877;BME280;2964;42.144;24.730;2022-09-17T08:45:20;149254.91;;;31.02;44.36
5877;BME280;2964;42.144;24.730;2022-09-17T08:47:46;149174.63;;;30.69;42.84
5877;BME280;2964;42.144;24.730;2022-09-17T08:50:16;149249.81;;;31.00;43.96
5877;BME280;2964;42.144;24.730;2022-09-17T08:53:02;149207.75;;;30.83;43.61
5877;BME280;2964;42.144;24.730;2022-09-17T08:55:36;149319.88;;;31.28;44.31
5877;BME280;2964;42.144;24.730;2022-09-17T08:58:37;149628.53;;;32.52;40.29
5877;BME280;2964;42.144;24.730;2022-09-17T09:01:14;149798.25;;;33.20;39.17
5877;BME280;2964;42.144;24.730;2022-09-17T09:03:57;150171.06;;;34.70;36.50
5877;BME280;2964;42.144;24.730;2022-09-17T09:06:33;150311.59;;;35.27;34.09
5877;BME280;2964;42.144;24.730;2022-09-17T09:09:04;150980.28;;;37.95;30.65
5877;BME280;2964;42.144;24.730;2022-09-17T09:11:33;150775.59;;;37.13;30.66
5877;BME280;2964;42.144;24.730;2022-09-17T09:14:04;151498.78;;;40.03;26.92
5877;BME280;2964;42.144;24.730;2022-09-17T09:16:37;151617.94;;;40.51;26.57
5877;BME280;2964;42.144;24.730;2022-09-17T09:19:17;151405.31;;;39.66;27.30
5877;BME280;2964;42.144;24.730;2022-09-17T09:21:56;151905.00;;;41.66;24.00
5877;BME280;2964;42.144;24.730;2022-09-17T09:24:33;151229.81;;;38.95;26.80
5877;BME280;2964;42.144;24.730;2022-09-17T09:27:14;151556.38;;;40.26;25.96
5877;BME280;2964;42.144;24.730;2022-09-17T09:29:47;152206.28;;;42.87;23.96
5877;BME280;2964;42.144;24.730;2022-09-17T09:32:27;151532.06;;;40.17;26.64
5877;BME280;2964;42.144;24.730;2022-09-17T09:35:00;152175.53;;;42.74;23.70
5877;BME280;2964;42.144;24.730;2022-09-17T09:37:29;152373.09;;;43.53;21.95
5877;BME280;2964;42.144;24.730;2022-09-17T09:40:03;152729.91;;;44.96;20.84
5877;BME280;2964;42.144;24.730;2022-09-17T09:42:34;152848.03;;;45.43;20.94
5877;BME280;2964;42.144;24.730;2022-09-17T09:45:12;153075.34;;;46.34;19.61
5877;BME280;2964;42.144;24.730;2022-09-17T09:47:51;153062.50;;;46.29;18.81
5877;BME280;2964;42.144;24.730;2022-09-17T09:50:36;151324.59;;;39.33;25.22
5877;BME280;2964;42.144;24.730;2022-09-17T09:53:11;151919.09;;;41.72;23.71
5877;BME280;2964;42.144;24.730;2022-09-17T09:56:01;151887.00;;;41.59;23.21
5877;BME280;2964;42.144;24.730;2022-09-17T09:58:33;151421.91;;;39.72;26.73
5877;BME280;2964;42.144;24.730;2022-09-17T10:01:01;151081.38;;;38.36;27.97
5877;BME280;2964;42.144;24.730;2022-09-17T10:03:30;150842.09;;;37.40;29.37
5877;BME280;2964;42.144;24.730;2022-09-17T10:05:59;150539.06;;;36.18;30.28
5877;BME280;2964;42.144;24.730;2022-09-17T10:08:27;150320.53;;;35.30;31.50
5877;BME280;2964;42.144;24.730;2022-09-17T10:10:57;150191.47;;;34.78;32.67
5877;BME280;2964;42.144;24.730;2022-09-17T10:13:24;149975.63;;;33.92;34.29
5877;BME280;2964;42.144;24.730;2022-09-17T10:15:52;149770.16;;;33.09;36.49
5877;BME280;2964;42.144;24.730;2022-09-17T10:18:20;149299.53;;;31.20;36.63
5877;BME280;2964;42.144;24.730;2022-09-17T10:20:56;149518.84;;;32.08;37.72
5877;BME280;2964;42.144;24.730;2022-09-17T10:23:25;149359.41;;;31.44;39.09
5877;BME280;2964;42.144;24.730;2022-09-17T10:25:53;149365.78;;;31.46;39.89
5877;BME280;2964;42.144;24.730;2022-09-17T10:28:31;149211.56;;;30.84;49.98
5877;BME280;2964;42.144;24.730;2022-09-17T10:31:00;148663.94;;;28.63;60.51
5877;BME280;2964;42.144;24.730;2022-09-17T10:33:29;148349.69;;;27.37;68.47
5877;BME280;2964;42.144;24.730;2022-09-17T10:36:03;148372.59;;;27.46;70.43
5877;BME280;2964;42.144;24.730;2022-09-17T10:38:33;148432.34;;;27.70;70.98
5877;BME280;2964;42.144;24.730;2022-09-17T10:41:09;148202.22;;;26.77;75.12
5877;BME280;2964;42.144;24.730;2022-09-17T10:43:36;148071.28;;;26.24;79.28
5877;BME280;2964;42.144;24.730;2022-09-17T10:46:03;147917.59;;;25.62;86.47
5877;BME280;2964;42.144;24.730;2022-09-17T10:48:33;147822.34;;;25.23;90.17
5877;BME280;2964;42.144;24.730;2022-09-17T10:51:06;147720.72;;;24.82;94.76
5877;BME280;2964;42.144;24.730;2022-09-17T10:54:03;147738.47;;;24.90;100.00
5877;BME280;2964;42.144;24.730;2022-09-17T10:56:33;147644.53;;;24.52;100.00
5877;BME280;2964;42.144;24.730;2022-09-17T10:59:19;147468.19;;;23.80;100.00
5877;BME280;2964;42.144;24.730;2022-09-17T11:01:57;147497.34;;;23.92;100.00
5877;BME280;2964;42.144;24.730;2022-09-17T11:04:34;147499.91;;;23.93;100.00
5877;BME280;2964;42.144;24.730;2022-09-17T11:10:15;147526.56;;;24.04;100.00
5877;BME280;2964;42.144;24.730;2022-09-17T11:12:56;147263.94;;;22.98;100.00
5877;BME280;2964;42.144;24.730;2022-09-17T11:15:33;147563.34;;;24.19;100.00
5877;BME280;2964;42.144;24.730;2022-09-17T11:18:11;147628.03;;;24.45;97.64
5877;BME280;2964;42.144;24.730;2022-09-17T11:20:55;147667.44;;;24.61;94.78
5877;BME280;2964;42.144;24.730;2022-09-17T11:23:40;147440.25;;;23.69;96.89
5877;BME280;2964;42.144;24.730;2022-09-17T11:26:22;147153.66;;;22.53;100.00
5877;BME280;2964;42.144;24.730;2022-09-17T11:29:02;147023.09;;;22.00;100.00
5877;BME280;2964;42.144;24.730;2022-09-17T11:31:38;146873.63;;;21.39;100.00
5877;BME280;2964;42.144;24.730;2022-09-17T11:34:28;146764.75;;;20.95;100.00
5877;BME280;2964;42.144;24.730;2022-09-17T11:37:01;146767.25;;;20.96;100.00
5877;BME280;2964;42.144;24.730;2022-09-17T11:39:35;146741.97;;;20.86;100.00
5877;BME280;2964;42.144;24.730;2022-09-17T11:42:12;146774.88;;;20.99;100.00
5877;BME280;2964;42.144;24.730;2022-09-17T11:44:44;146784.97;;;21.04;100.00
5877;BME280;2964;42.144;24.730;2022-09-17T11:47:17;146606.50;;;20.31;100.00
5877;BME280;2964;42.144;24.730;2022-09-17T11:49:47;146488.81;;;19.83;100.00
5877;BME280;2964;42.144;24.730;2022-09-17T11:52:20;146874.88;;;21.40;100.00
5877;BME280;2964;42.144;24.730;2022-09-17T11:54:52;146934.47;;;21.64;100.00
5877;BME280;2964;42.144;24.730;2022-09-17T11:57:25;146781.19;;;21.02;100.00
5877;BME280;2964;42.144;24.730;2022-09-17T11:59:56;147021.84;;;22.00;100.00
5877;BME280;2964;42.144;24.730;2022-09-17T12:02:37;147071.25;;;22.20;100.00
5877;BME280;2964;42.144;24.730;2022-09-17T12:05:13;146990.19;;;21.87;100.00
5877;BME280;2964;42.144;24.730;2022-09-17T12:07:47;147044.66;;;22.09;100.00
5877;BME280;2964;42.144;24.730;2022-09-17T12:10:27;147029.47;;;22.03;100.00
5877;BME280;2964;42.144;24.730;2022-09-17T12:13:02;147061.13;;;22.15;100.00
5877;BME280;2964;42.144;24.730;2022-09-17T12:15:35;147078.88;;;22.23;100.00
5877;BME280;2964;42.144;24.730;2022-09-17T12:18:18;147023.09;;;22.00;100.00
5877;BME280;2964;42.144;24.730;2022-09-17T12:20:51;147119.47;;;22.39;100.00
5877;BME280;2964;42.144;24.730;2022-09-17T12:23:29;147147.34;;;22.50;100.00
5877;BME280;2964;42.144;24.730;2022-09-17T12:26:06;147255.06;;;22.94;100.00
5877;BME280;2964;42.144;24.730;2022-09-17T12:28:42;147225.91;;;22.82;100.00
5877;BME280;2964;42.144;24.730;2022-09-17T12:31:19;147271.56;;;23.01;100.00
5877;BME280;2964;42.144;24.730;2022-09-17T12:33:51;147185.34;;;22.66;100.00
5877;BME280;2964;42.144;24.730;2022-09-17T12:36:32;147233.53;;;22.85;100.00
5877;BME280;2964;42.144;24.730;2022-09-17T12:39:38;147233.53;;;22.85;100.00
5877;BME280;2964;42.144;24.730;2022-09-17T12:42:17;147293.16;;;23.09;100.00
5877;BME280;2964;42.144;24.730;2022-09-17T12:45:08;147321.06;;;23.21;98.58
5877;BME280;2964;42.144;24.730;2022-09-17T12:50:49;147282.97;;;23.05;97.52
5877;BME280;2964;42.144;24.730;2022-09-17T12:53:24;146892.66;;;21.47;100.00
5877;BME280;2964;42.144;24.730;2022-09-17T12:56:04;147361.63;;;23.37;99.86
5877;BME280;2964;42.144;24.730;2022-09-17T12:58:42;147342.63;;;23.29;100.00
5877;BME280;2964;42.144;24.730;2022-09-17T13:01:18;147329.94;;;23.24;100.00
5877;BME280;2964;42.144;24.730;2022-09-17T13:03:51;147303.31;;;23.13;100.00
5877;BME280;2964;42.144;24.730;2022-09-17T13:06:57;147312.16;;;23.17;100.00
5877;BME280;2964;42.144;24.730;2022-09-17T13:12:42;147277.88;;;23.03;100.00
5877;BME280;2964;42.144;24.730;2022-09-17T13:15:32;147286.78;;;23.07;100.00
5877;BME280;2964;42.144;24.730;2022-09-17T13:18:10;147302.03;;;23.13;100.00
5877;BME280;2964;42.144;24.730;2022-09-17T13:20:44;147319.78;;;23.20;99.36
5877;BME280;2964;42.144;24.730;2022-09-17T13:23:31;147333.75;;;23.26;99.45
5877;BME280;2964;42.144;24.730;2022-09-17T13:25:59;147371.75;;;23.41;98.05
5877;BME280;2964;42.144;24.730;2022-09-17T13:28:36;147307.09;;;23.15;100.00
5877;BME280;2964;42.144;24.730;2022-09-17T13:31:03;147322.31;;;23.21;100.00